Portada
METAR-TAF:

METAR-TAF

Aeropuertos :

Aeropuerto de La Coruña

La Coruña, España

latitud: 43-18N, longitud: 008-23W, altitud: 97 m

Observación

El informe se hizo hace 10 minutos, a las 18:30 UTC
Viento 6 kt del norte, variando entre oeste-noroeste y norte-noreste
Temperatura 26°C
Humedad 61%
Presión 1017 hPa
Visibilidad 10 km o más
sin nubes por debajo de 1500 m y sin presencia de cumulonimbus.

METAR: LECO 201830Z 35006KT 300V020 CAVOK 26/18 Q1017 NOSIG

Hora: 20:40 (18:40 UTC)

Pronóstico

El informe se hizo hace 4 horas y 40 minutos, a las 14:00 UTC
Pronóstico válido del 20 a las 15 UTC al 21 a las 15 UTC
Viento 9 kt del norte-noreste
Visibilidad 10 km o más
sin nubes por debajo de 1500 m y sin presencia de cumulonimbus.

TAF: LECO 201400Z 2015/2115 02009KT CAVOK TX31/2114Z TN15/2106Z

Observaciones y pronósticos meteorológicos de más de 4000 aeropuertos (mensajes METAR y TAF).

Los puntos amarillos y rojos representan las estaciones disponibles.

Ponga el ratón en el punto deseado para ver el nombre de la estación.

Haga clic para ver las observaciones y los pronósticos meteorológicos.

Para cambiar el mapa : haga clic en los botones verdes con una cruz de color negro para hacer un zoom, en el botón verde con un guión para alejar o en las flechas verdes para mapas adyacentes.


METAR-TAF: